Terminal Aerodrome Forecast
Issued by NWS Corpus Christi, TX

Home | Current Version | Previous Version | Text Only | Print | Product List | Glossary On
Versions: 1 2 3 4 5 6 7 8 9 10 11 12 13 14
420
FTUS44 KCRP 200526
TAFVCT
TAF
KVCT 200526Z 2006/2106 08006KT P6SM VCSH SCT040
     FM200900 07005KT P6SM BKN015
      TEMPO 2011/2014 5SM BR
     FM201500 14006KT P6SM BKN025
     FM201900 14009KT P6SM BKN035=

USA.gov is the U.S. government's official web portal to all federal, state and local government web resources and services.